首页
METAR-TAF:

METAR-TAF

机场 :

瑟堡, 法国

纬度: 49-39N, 经度: 001-28W, 海拔: 138米

当前天气观测

该预报发布于16分钟前的02:30 UTC
风速17节,风向
温度 14°C
湿度 100%
气压 1024 hPa
能見度: 5000
阴天层高于300英尺
轻雾

METAR: LFRC 270230Z AUTO 08017KT 5000 BR OVC003 14/14 Q1024

时间: 04:46 (02:46 UTC)

预报

该预报发布于11小时和28分钟前的15:18 UTC
预报有效从26日的 15点(UTC)到 26日的 24点(UTC)
风速15节,风向东转东北,有时为25节阵风
能見度: 4500
阴天层高于300英尺
轻雾
短暂存在
从 26日的 16点(UTC)到 26日的 22点(UTC)
能見度: 6000
散云层高于600英尺
几率 40% :
短暂存在
从 26日的 15点(UTC)到 26日的 24点(UTC)
风速25节,风向东转东北,有时为35节阵风
几率 40% :
短暂存在
从 26日的 22点(UTC)到 26日的 24点(UTC)
能見度: 0800

TAF: LFRC 261518Z 2615/2624 06015G25KT 4500 BR OVC003 TEMPO 2616/2622 6000 NSW SCT006 PROB40 TEMPO 2615/2624 06025G35KT PROB40 TEMPO 2622/2624 0800 FG VV///

超过4000个机场的气象观测和天气预报(METAR&TAF报告)。

可查询的气象台以黄色和红色小点在地图上表示。

将鼠标移到小点上方,可查看气象台名称。

然后点击查看天气观测和预报。

如需切换地图:点击带黑十字的绿色按钮放大地图;点击带横线的绿色按钮缩小地图;或者点击绿色箭头查看邻近地区的地图。


METAR-TAF: